Strona główna
METAR-TAF:

METAR-TAF

Lotnisko :

Port lotniczy Daşoguz

Daszoguz, Turkmenistan

Szerokość geograficzna: 41-45-53N, Długość geograficzna: 059-49-59E, wysokość: 83 m

Aktualna obserwacja pogody

Raport powstał 24 minut temu, godzina 01:00 UTC
Wiatr 6 kt od wschód
Temperatura 13°C
Wilgotność 41%
Ciśnienie 1019 hPa
Widzialność 10 km lub więcej
Brak chmur poniżej 1500 m i brak chmur cumulonimbus

METAR: UTAT 060100Z 09006KT CAVOK 13/00 Q1019 R08/CLRD70 NOSIG

czas: 06:24 (01:24 UTC)

Prognoza

Raport powstał 2 godziny i 49 minut temu, godzina 22:35 UTC
Prognoza ważna od 06 godzina 00 UTC do 06 godzina 24 UTC
Wiatr 12 kt od wschodnio-północny wschód
Widzialność 10 km lub więcej
Rozproszone chmury na wysokości 5000 ft, Cumulonimbus.
Przerywane chmury na wysokości 10000 ft
Przejściowo
od 06 godzina 04 UTC do 06 godzina 10 UTC
Wiatr 16 kt od północno-północny wschód

TAF: UTAT 052235Z 0600/0624 07012KT 9999 SCT050CB BKN100 TEMPO 0604/0610 02016KT

Obserwacja i prognoza pogody dla ponad 4000 lotnisk (raport METAR i TAF).

Dostępne stacje oznaczono żółtymi i czerwonymi punktami na mapie.

Najedź kursorem aby zobaczyć nazwę stacji.

Kliknij aby zobaczyć obserwacje i prognozy pogody.

Aby zmienić mapę: kliknij na zielony przycisk z czarnym krzyżykiem, aby powiększyć; na zielony przycisk z myślnikiem, aby pomniejszyć; na zielone strzałki, aby przejść do map sąsiednich.


METAR-TAF: